Time;durP1;ratioP1;P1;durP2;ratioP2;P2;SDS_P1;SDS_P2;PMS_P1;PMS_P2;Temp;Humidity;BMP_temperature;BMP_pressure;BME280_temperature;BME280_humidity;BME280_pressure;Samples;Min_cycle;Max_cycle;Signal;HPM_P1;HPM_P2
2021/04/20 00:00:01;;;;;;;3.97;2.20;;;;;;;6.28;100.00;101193.81;4959777;29;20249;-75
2021/04/20 00:02:34;;;;;;;4.43;2.00;;;;;;;6.31;100.00;101195.22;4941431;28;20655;-74
2021/04/20 00:05:04;;;;;;;4.13;2.07;;;;;;;6.28;100.00;101196.53;4929117;29;20237;-74
2021/04/20 00:07:30;;;;;;;2.77;2.17;;;;;;;6.24;100.00;101189.09;4939381;29;20219;-74
2021/04/20 00:09:57;;;;;;;4.23;2.40;;;;;;;6.10;100.00;101195.75;4958950;28;20352;-74
2021/04/20 00:12:23;;;;;;;2.43;2.13;;;;;;;6.01;100.00;101185.53;4942420;28;20289;-74
2021/04/20 00:14:49;;;;;;;4.80;2.27;;;;;;;5.88;100.00;101191.94;4928377;29;20724;-74
2021/04/20 00:17:14;;;;;;;4.80;2.53;;;;;;;5.87;100.00;101182.19;4943157;29;20223;-75
2021/04/20 00:19:40;;;;;;;5.67;2.27;;;;;;;5.93;100.00;101175.06;4943211;29;20310;-74
2021/04/20 00:22:07;;;;;;;3.87;2.00;;;;;;;5.94;100.00;101177.53;4941168;28;20242;-74
2021/04/20 00:24:36;;;;;;;3.37;2.00;;;;;;;5.87;100.00;101184.88;4943184;29;20187;-73
2021/04/20 00:27:04;;;;;;;6.13;2.37;;;;;;;5.74;100.00;101179.69;4926857;29;20767;-74
2021/04/20 00:29:32;;;;;;;3.63;2.00;;;;;;;5.77;100.00;101171.16;4942452;29;20234;-73
2021/04/20 00:31:57;;;;;;;4.50;2.27;;;;;;;5.92;100.00;101168.84;4956878;28;20238;-74
2021/04/20 00:34:23;;;;;;;5.73;2.37;;;;;;;5.87;100.00;101182.19;4943194;29;20190;-76
2021/04/20 00:36:51;;;;;;;3.83;2.30;;;;;;;5.95;100.00;101173.81;4958343;28;20667;-73
2021/04/20 00:39:19;;;;;;;4.77;2.40;;;;;;;5.78;100.00;101178.16;4911616;29;20194;-73
2021/04/20 00:41:45;;;;;;;2.83;2.20;;;;;;;5.69;100.00;101173.28;4941304;29;20238;-76
2021/04/20 00:44:12;;;;;;;3.73;2.10;;;;;;;5.71;100.00;101170.38;4942910;29;20230;-75
2021/04/20 00:46:37;;;;;;;5.80;2.23;;;;;;;5.82;100.00;101171.28;4910425;29;20689;-74
2021/04/20 00:49:08;;;;;;;4.73;2.40;;;;;;;5.60;100.00;101163.06;4959599;28;20191;-75
2021/04/20 00:51:34;;;;;;;4.83;2.60;;;;;;;5.56;100.00;101164.59;4958273;28;20230;-74
2021/04/20 00:54:02;;;;;;;3.60;2.20;;;;;;;5.55;100.00;101154.84;4926470;29;20183;-74
2021/04/20 00:56:32;;;;;;;3.83;2.40;;;;;;;5.55;100.00;101154.84;4926441;29;20231;-75
2021/04/20 00:59:01;;;;;;;2.93;2.37;;;;;;;5.58;100.00;101154.41;4957977;29;20191;-75
2021/04/20 01:01:26;;;;;;;4.10;2.37;;;;;;;5.63;100.00;101157.25;4941342;28;20238;-74
2021/04/20 01:03:52;;;;;;;5.10;2.47;;;;;;;5.73;100.00;101157.53;4942012;29;20195;-74
2021/04/20 01:06:17;;;;;;;5.10;2.50;;;;;;;5.83;100.00;101164.03;4942718;29;20254;-74
2021/04/20 01:08:43;;;;;;;4.40;2.00;;;;;;;5.78;100.00;101161.19;4926540;29;20187;-74
2021/04/20 01:11:10;;;;;;;3.53;2.50;;;;;;;5.69;100.00;101161.72;4926088;29;20713;-75
2021/04/20 01:13:36;;;;;;;6.50;2.93;;;;;;;5.56;100.00;101159.19;4941853;28;20187;-74
2021/04/20 01:16:02;;;;;;;5.70;2.77;;;;;;;5.49;100.00;101166.53;4928783;29;20503;-74
2021/04/20 01:18:32;;;;;;;4.20;2.70;;;;;;;5.34;100.00;101158.03;4917023;29;20182;-75
2021/04/20 01:21:07;;;;;;;6.47;3.10;;;;;;;5.40;100.00;101162.50;4924603;29;20305;-74
2021/04/20 01:23:53;;;;;;;5.37;2.80;;;;;;;5.43;100.00;101156.66;4957030;29;20458;-74
2021/04/20 01:26:28;;;;;;;4.27;2.80;;;;;;;5.32;100.00;101160.13;4925217;29;20255;-76
2021/04/20 01:28:58;;;;;;;4.87;2.60;;;;;;;5.31;100.00;101155.81;4927514;29;20186;-74
2021/04/20 01:31:26;;;;;;;4.37;3.10;;;;;;;5.31;100.00;101153.13;4926124;29;20262;-74
2021/04/20 01:33:54;;;;;;;5.83;3.17;;;;;;;5.05;100.00;101153.44;4941335;29;20202;-75
2021/04/20 01:36:20;;;;;;;5.20;2.97;;;;;;;5.13;100.00;101155.81;4956750;28;20227;-74
2021/04/20 01:38:51;;;;;;;5.03;2.70;;;;;;;5.14;100.00;101152.06;4926687;29;20563;-74
2021/04/20 01:41:17;;;;;;;5.57;3.10;;;;;;;5.00;100.00;101150.56;4926782;29;20290;-74
2021/04/20 01:43:45;;;;;;;9.00;3.30;;;;;;;5.16;100.00;101159.91;4958947;28;20595;-76
2021/04/20 01:46:11;;;;;;;6.37;2.93;;;;;;;5.09;100.00;101149.22;4959079;28;20222;-74
2021/04/20 01:48:38;;;;;;;4.30;2.90;;;;;;;5.26;100.00;101150.25;4937795;29;20740;-74
2021/04/20 01:51:06;;;;;;;5.90;2.97;;;;;;;5.21;100.00;101144.72;4968156;28;20231;-74
2021/04/20 01:53:35;;;;;;;5.43;3.20;;;;;;;4.96;100.00;101147.72;4920803;29;20197;-74
2021/04/20 01:56:04;;;;;;;4.97;3.30;;;;;;;5.08;100.00;101157.53;4952897;29;20231;-74
2021/04/20 01:58:32;;;;;;;7.53;3.13;;;;;;;5.02;100.00;101159.25;4966794;29;20278;-74
2021/04/20 02:00:59;;;;;;;3.60;2.90;;;;;;;4.97;100.00;101157.47;4939882;28;20243;-74
2021/04/20 02:03:30;;;;;;;4.20;2.97;;;;;;;4.78;100.00;101145.84;4942817;29;20661;-74
2021/04/20 02:05:56;;;;;;;8.13;2.90;;;;;;;4.81;100.00;101158.84;4943056;29;20234;-74
2021/04/20 02:08:21;;;;;;;3.97;2.40;;;;;;;4.94;100.00;101155.19;4927505;29;20194;-74
2021/04/20 02:10:47;;;;;;;5.20;2.80;;;;;;;4.87;100.00;101159.81;4941974;29;20230;-74
2021/04/20 02:13:15;;;;;;;5.93;2.73;;;;;;;4.86;100.00;101160.88;4927905;29;20281;-74
2021/04/20 02:15:41;;;;;;;4.27;3.20;;;;;;;4.68;100.00;101160.84;4910093;29;20293;-74
2021/04/20 02:18:12;;;;;;;4.97;3.43;;;;;;;4.68;100.00;101150.09;4959365;29;20194;-74
2021/04/20 02:20:40;;;;;;;4.67;2.83;;;;;;;4.62;100.00;101156.38;4942839;29;20254;-74
2021/04/20 02:23:08;;;;;;;9.03;3.27;;;;;;;4.49;100.00;101148.44;4926530;29;20191;-74
2021/04/20 02:25:34;;;;;;;5.00;3.20;;;;;;;4.55;100.00;101144.03;4957789;28;20215;-74
2021/04/20 02:27:59;;;;;;;5.77;2.90;;;;;;;4.53;100.00;101149.63;4957893;28;20187;-75
2021/04/20 02:30:32;;;;;;;5.40;2.90;;;;;;;4.52;100.00;101149.84;4941238;28;20230;-74
2021/04/20 02:32:57;;;;;;;5.10;3.00;;;;;;;4.62;100.00;101145.63;4926678;29;20657;-75
2021/04/20 02:35:27;;;;;;;6.87;3.43;;;;;;;4.75;100.00;101145.47;4914283;28;20237;-75
2021/04/20 02:37:52;;;;;;;6.20;3.53;;;;;;;4.75;100.00;101142.78;4913725;29;20179;-75
2021/04/20 02:40:26;;;;;;;5.90;3.60;;;;;;;4.76;100.00;101137.19;4929475;28;20206;-74
2021/04/20 02:42:56;;;;;;;4.50;3.00;;;;;;;4.68;100.00;101144.72;4945341;29;20438;-74
2021/04/20 02:45:22;;;;;;;5.10;3.07;;;;;;;4.58;100.00;101133.66;4962854;28;20320;-74
2021/04/20 02:47:48;;;;;;;4.67;3.63;;;;;;;4.45;100.00;101135.63;4961733;28;20218;-76
2021/04/20 02:50:16;;;;;;;3.47;3.07;;;;;;;4.31;100.00;101126.88;4929152;28;20198;-74
2021/04/20 02:52:42;;;;;;;5.07;3.23;;;;;;;4.23;100.00;101129.84;4945169;29;20183;-73
2021/04/20 02:55:09;;;;;;;5.00;3.03;;;;;;;4.21;100.00;101121.19;4930142;28;20202;-73
2021/04/20 02:57:39;;;;;;;5.27;3.50;;;;;;;4.14;100.00;101126.81;4945531;28;20183;-74
2021/04/20 03:00:12;;;;;;;5.60;3.50;;;;;;;4.20;100.00;101117.91;4930527;29;20179;-74
2021/04/20 03:02:38;;;;;;;6.33;3.40;;;;;;;4.11;100.00;101125.41;4944863;29;20227;-74
2021/04/20 03:05:13;;;;;;;5.80;3.03;;;;;;;4.28;100.00;101135.38;4945486;28;20190;-73
2021/04/20 03:07:38;;;;;;;5.77;3.40;;;;;;;4.10;100.00;101123.72;4929984;29;20214;-74
2021/04/20 03:10:07;;;;;;;5.00;3.10;;;;;;;4.08;100.00;101127.69;4945554;29;20171;-74
2021/04/20 03:12:34;;;;;;;4.67;2.67;;;;;;;4.01;100.00;101119.69;4945983;29;20222;-74
2021/04/20 03:15:00;;;;;;;4.10;2.90;;;;;;;4.07;100.00;101128.75;4929966;29;20274;-75
2021/04/20 03:17:26;;;;;;;4.93;2.87;;;;;;;4.06;100.00;101122.53;4960971;28;20258;-74
2021/04/20 03:19:51;;;;;;;3.60;2.83;;;;;;;4.00;100.00;101123.41;4929506;29;20241;-74
2021/04/20 03:22:17;;;;;;;3.97;2.97;;;;;;;3.91;100.00;101123.91;4929170;29;20246;-74
2021/04/20 03:25:02;;;;;;;7.27;3.37;;;;;;;3.84;100.00;101126.63;4925753;29;20215;-75
2021/04/20 03:27:32;;;;;;;3.77;2.90;;;;;;;3.90;100.00;101115.03;4955659;29;20668;-74
2021/04/20 03:30:00;;;;;;;4.57;3.40;;;;;;;3.89;100.00;101116.06;4956196;28;20199;-74
2021/04/20 03:32:27;;;;;;;4.13;3.50;;;;;;;3.89;100.00;101115.25;4930318;28;20216;-74
2021/04/20 03:35:10;;;;;;;5.00;3.80;;;;;;;3.64;100.00;101114.38;4961680;29;20295;-74
2021/04/20 03:37:41;;;;;;;7.10;5.07;;;;;;;3.58;100.00;101106.38;4929160;29;20242;-74
2021/04/20 03:40:12;;;;;;;6.87;4.40;;;;;;;3.76;100.00;101115.34;4913387;28;20219;-74
2021/04/20 03:42:43;;;;;;;5.27;3.83;;;;;;;3.76;100.00;101109.97;4911297;29;20199;-74
2021/04/20 03:45:29;;;;;;;6.97;3.77;;;;;;;3.65;100.00;101109.84;4920786;28;20192;-75
2021/04/20 03:47:56;;;;;;;7.30;3.70;;;;;;;3.60;100.00;101105.09;4932559;29;20187;-74
2021/04/20 03:50:29;;;;;;;5.10;3.20;;;;;;;3.43;100.00;101105.03;4925503;28;20227;-74
2021/04/20 03:53:06;;;;;;;11.17;3.57;;;;;;;3.57;100.00;101099.34;4909773;29;20729;-74
2021/04/20 03:55:34;;;;;;;6.03;3.57;;;;;;;3.57;100.00;101099.34;4909333;29;20239;-74
2021/04/20 03:58:00;;;;;;;5.87;3.60;;;;;;;3.45;100.00;101106.44;4926483;29;20725;-74
2021/04/20 04:00:25;;;;;;;5.90;3.70;;;;;;;3.28;100.00;101104.47;4924025;28;20225;-74
2021/04/20 04:03:05;;;;;;;6.37;3.80;;;;;;;3.39;100.00;101106.47;4924899;29;20200;-74
2021/04/20 04:05:34;;;;;;;5.17;3.50;;;;;;;3.41;100.00;101109.75;4946794;28;20229;-73
2021/04/20 04:08:02;;;;;;;5.60;3.40;;;;;;;3.36;100.00;101109.59;4921696;29;20184;-74
2021/04/20 04:10:32;;;;;;;6.27;3.60;;;;;;;3.36;100.00;101117.66;4965546;28;20254;-74
2021/04/20 04:13:02;;;;;;;6.80;3.47;;;;;;;3.41;100.00;101109.75;4943358;29;20263;-74
2021/04/20 04:15:33;;;;;;;7.17;3.33;;;;;;;3.37;100.00;101112.09;4943491;29;20230;-75
2021/04/20 04:18:00;;;;;;;5.80;3.53;;;;;;;3.32;100.00;101108.41;4927432;29;20204;-74
2021/04/20 04:20:26;;;;;;;6.00;3.57;;;;;;;3.43;100.00;101118.47;4942245;28;20234;-76
2021/04/20 04:23:07;;;;;;;7.63;4.07;;;;;;;3.36;100.00;101112.28;4942172;29;20187;-74
2021/04/20 04:25:38;;;;;;;7.43;3.80;;;;;;;3.52;100.00;101120.66;4942695;29;20226;-74
2021/04/20 04:28:08;;;;;;;6.00;4.00;;;;;;;3.40;100.00;101117.00;4944015;29;20203;-75
2021/04/20 04:30:36;;;;;;;6.87;4.00;;;;;;;3.55;100.00;101114.84;4944299;28;20231;-72
2021/04/20 04:33:02;;;;;;;6.53;4.30;;;;;;;3.78;100.00;101112.44;4959111;28;20191;-74
2021/04/20 04:35:28;;;;;;;9.33;4.30;;;;;;;3.71;100.00;101117.03;4960449;28;20226;-75
2021/04/20 04:37:55;;;;;;;7.50;4.03;;;;;;;3.84;100.00;101128.50;4944117;29;20190;-74
2021/04/20 04:40:22;;;;;;;6.23;3.87;;;;;;;3.80;100.00;101121.91;4943435;28;20293;-75
2021/04/20 04:42:47;;;;;;;8.40;4.37;;;;;;;3.89;100.00;101123.31;4943284;29;20195;-75
2021/04/20 04:45:19;;;;;;;10.40;4.97;;;;;;;3.63;100.00;101122.66;4959878;28;20251;-75
2021/04/20 04:47:47;;;;;;;5.83;3.73;;;;;;;4.02;100.00;101115.13;4959739;29;20649;-75
2021/04/20 04:50:13;;;;;;;10.17;4.90;;;;;;;4.02;100.00;101117.81;4941370;28;20191;-75
2021/04/20 04:52:41;;;;;;;8.87;4.80;;;;;;;3.95;100.00;101119.72;4927272;29;20215;-74
2021/04/20 04:55:09;;;;;;;9.80;5.00;;;;;;;4.02;100.00;101125.88;4927460;28;20193;-74
2021/04/20 04:57:37;;;;;;;8.47;5.17;;;;;;;3.93;100.00;101133.38;4943384;28;20206;-76
2021/04/20 05:00:06;;;;;;;7.57;5.20;;;;;;;3.96;100.00;101138.34;4943879;29;20191;-74
2021/04/20 05:02:35;;;;;;;8.80;5.60;;;;;;;3.86;100.00;101134.47;4958412;28;20741;-75
2021/04/20 05:05:05;;;;;;;5.33;4.70;;;;;;;3.96;100.00;101145.56;4943992;29;20194;-75
2021/04/20 05:07:35;;;;;;;8.00;5.30;;;;;;;4.21;100.00;101140.00;4927249;29;20931;-75
2021/04/20 05:10:06;;;;;;;6.77;5.23;;;;;;;4.22;100.00;101136.25;4944327;29;20191;-74
2021/04/20 05:12:34;;;;;;;8.87;5.17;;;;;;;4.42;100.00;101128.84;4942740;29;20230;-75
2021/04/20 05:15:18;;;;;;;9.40;5.23;;;;;;;4.43;100.00;101130.50;4927684;29;20187;-74
2021/04/20 05:17:46;;;;;;;17.60;10.73;;;;;;;4.56;100.00;101125.00;4921225;29;20217;-74
2021/04/20 05:20:21;;;;;;;13.97;9.70;;;;;;;4.56;100.00;101130.38;4939572;28;20187;-75
2021/04/20 05:22:49;;;;;;;11.67;6.40;;;;;;;4.69;100.00;101128.38;4937912;29;20183;-75
2021/04/20 05:25:21;;;;;;;9.37;5.00;;;;;;;4.80;100.00;101134.84;4972334;28;20183;-75
2021/04/20 05:27:49;;;;;;;7.80;4.60;;;;;;;5.03;100.00;101128.56;4943823;29;20187;-75
2021/04/20 05:30:14;;;;;;;6.03;4.00;;;;;;;5.12;100.00;101132.63;4942824;28;20202;-76
2021/04/20 05:32:41;;;;;;;5.87;4.17;;;;;;;5.28;100.00;101132.00;4941842;29;20194;-74
2021/04/20 05:35:08;;;;;;;7.30;4.40;;;;;;;5.26;100.00;101128.72;4942406;28;20187;-73
2021/04/20 05:37:37;;;;;;;8.13;5.30;;;;;;;5.33;100.00;101118.69;4943207;29;20250;-74
2021/04/20 05:40:09;;;;;;;6.10;5.07;;;;;;;5.59;100.00;101129.94;4943707;29;20187;-74
2021/04/20 05:42:37;;;;;;;10.27;5.97;;;;;;;5.58;100.00;101122.06;4942162;29;20258;-75
2021/04/20 05:45:04;;;;;;;7.60;5.77;;;;;;;5.68;100.00;101122.31;4927943;28;20178;-75
2021/04/20 05:47:30;;;;;;;7.53;5.27;;;;;;;5.73;100.00;101125.19;4926761;29;20191;-76
2021/04/20 05:50:05;;;;;;;9.77;5.37;;;;;;;5.80;100.00;101111.38;4944871;29;20223;-74
2021/04/20 05:52:35;;;;;;;11.67;5.77;;;;;;;5.98;100.00;101122.09;4943090;29;20226;-75
2021/04/20 05:55:00;;;;;;;10.07;6.20;;;;;;;6.16;100.00;101111.25;4928646;29;20194;-75
2021/04/20 05:57:26;;;;;;;8.77;6.27;;;;;;;6.14;100.00;101116.03;4958823;28;20227;-75
2021/04/20 05:59:58;;;;;;;8.90;5.80;;;;;;;6.16;100.00;101111.25;4961226;29;20203;-73
2021/04/20 06:02:29;;;;;;;9.47;6.47;;;;;;;6.23;100.00;101106.56;4959753;28;20236;-74
2021/04/20 06:04:58;;;;;;;10.20;6.23;;;;;;;6.39;100.00;101106.69;4945326;29;20214;-75
2021/04/20 06:07:24;;;;;;;11.27;7.13;;;;;;;6.69;100.00;101102.81;4943220;29;20229;-74
2021/04/20 06:09:54;;;;;;;14.87;7.67;;;;;;;6.83;100.00;101115.00;4938210;29;20192;-75
2021/04/20 06:12:24;;;;;;;16.27;8.50;;;;;;;7.02;100.00;101103.81;4927722;29;20231;-74
2021/04/20 06:14:52;;;;;;;12.00;8.03;;;;;;;7.15;100.00;101108.13;4915416;29;20187;-76
2021/04/20 06:17:17;;;;;;;14.47;7.87;;;;;;;7.22;100.00;101106.13;4945511;28;20306;-74
2021/04/20 06:19:45;;;;;;;14.00;7.83;;;;;;;7.33;100.00;101108.78;4912816;29;20658;-74
2021/04/20 06:22:13;;;;;;;12.80;8.00;;;;;;;7.44;100.00;101103.31;4928529;29;20235;-74
2021/04/20 06:24:39;;;;;;;13.33;8.47;;;;;;;7.56;100.00;101117.59;4912287;29;20231;-74
2021/04/20 06:27:05;;;;;;;14.37;8.67;;;;;;;7.62;99.38;101111.25;4926345;29;20235;-75
2021/04/20 06:29:33;;;;;;;12.10;7.73;;;;;;;7.67;99.64;101114.88;4913105;29;20195;-74
2021/04/20 06:32:01;;;;;;;15.13;8.50;;;;;;;7.87;98.60;101107.09;4912548;29;20235;-75
2021/04/20 06:34:30;;;;;;;14.50;8.20;;;;;;;7.91;98.42;101104.72;4912546;29;20221;-74
2021/04/20 06:36:56;;;;;;;14.63;8.27;;;;;;;7.90;97.28;101113.91;4925786;29;20215;-74
2021/04/20 06:39:22;;;;;;;13.60;7.43;;;;;;;7.86;97.16;101107.34;4926144;29;20210;-73
2021/04/20 06:41:51;;;;;;;12.50;8.00;;;;;;;7.91;96.26;101110.13;4924875;29;20236;-75
2021/04/20 06:44:41;;;;;;;13.10;7.80;;;;;;;7.89;97.11;101112.25;4926404;29;20842;-73
2021/04/20 06:47:14;;;;;;;11.63;8.27;;;;;;;8.09;97.08;101108.03;4941850;28;20227;-72
2021/04/20 06:49:45;;;;;;;14.20;7.97;;;;;;;8.16;97.25;101114.94;4942962;29;20203;-75
2021/04/20 06:52:16;;;;;;;13.57;8.20;;;;;;;8.48;95.04;101102.50;4892925;29;20255;-75
2021/04/20 06:54:46;;;;;;;15.50;7.90;;;;;;;8.46;94.77;101099.19;4927421;29;20282;-75
2021/04/20 06:57:15;;;;;;;12.07;6.93;;;;;;;8.66;93.13;101099.50;4911665;29;20227;-75
2021/04/20 06:59:50;;;;;;;13.20;7.70;;;;;;;8.70;91.62;101095.22;4927161;29;20720;-74
2021/04/20 07:02:53;;;;;;;14.33;7.43;;;;;;;8.70;91.86;101100.63;4909239;29;20235;-74
2021/04/20 07:05:49;;;;;;;9.87;6.97;;;;;;;8.85;91.35;101097.06;4943343;28;20196;-75
2021/04/20 07:08:32;;;;;;;11.67;7.20;;;;;;;8.96;90.85;101095.31;4925997;29;20183;-74
2021/04/20 07:10:58;;;;;;;12.00;7.30;;;;;;;9.12;90.01;101100.69;4926258;29;20266;-74
2021/04/20 07:13:25;;;;;;;12.77;7.87;;;;;;;9.45;88.87;101093.25;4925325;29;20658;-74
2021/04/20 07:16:03;;;;;;;11.10;6.80;;;;;;;9.48;86.14;101083.75;4934816;29;20227;-73
2021/04/20 07:18:55;;;;;;;13.70;6.97;;;;;;;9.50;85.03;101092.47;4928749;28;20294;-75
2021/04/20 07:21:56;;;;;;;11.63;7.30;;;;;;;9.32;85.59;101093.63;4959552;28;20612;-74
2021/04/20 07:24:29;;;;;;;13.27;7.43;;;;;;;9.48;86.56;101095.41;4941146;29;20198;-75
2021/04/20 07:27:13;;;;;;;10.63;7.47;;;;;;;9.70;85.83;101088.06;4928806;29;20234;-73
2021/04/20 07:30:14;;;;;;;10.93;6.73;;;;;;;9.82;84.59;101086.03;4944112;29;20219;-73
2021/04/20 07:32:51;;;;;;;11.53;6.43;;;;;;;9.60;83.79;101093.41;4959429;29;20229;-74
2021/04/20 07:35:28;;;;;;;12.20;6.47;;;;;;;9.73;83.47;101085.66;4942902;28;20195;-75
2021/04/20 07:37:59;;;;;;;9.83;6.10;;;;;;;9.73;85.40;101082.97;4912858;29;20214;-74
2021/04/20 07:40:35;;;;;;;10.97;5.93;;;;;;;10.15;82.29;101073.88;4942398;28;20566;-74
2021/04/20 07:43:28;;;;;;;12.17;6.20;;;;;;;10.12;80.46;101077.09;4943686;29;20327;-74
2021/04/20 07:46:07;;;;;;;9.40;6.23;;;;;;;10.07;78.22;101073.53;4956762;29;20387;-74
2021/04/20 07:48:59;;;;;;;8.57;5.80;;;;;;;10.15;78.62;101078.50;4925711;29;20199;-74
2021/04/20 07:51:54;;;;;;;8.10;5.20;;;;;;;10.27;75.93;101068.25;4924690;29;20235;-74
2021/04/20 07:54:43;;;;;;;9.27;5.50;;;;;;;10.53;74.55;101073.59;4926059;29;20183;-73
2021/04/20 07:57:13;;;;;;;10.13;5.70;;;;;;;10.56;73.69;101073.91;4941127;28;20270;-75
2021/04/20 08:00:12;;;;;;;8.10;5.03;;;;;;;10.51;72.68;101065.75;4910730;29;20191;-73
2021/04/20 08:02:42;;;;;;;8.97;5.50;;;;;;;10.75;72.92;101073.22;4939993;29;20309;-75
2021/04/20 08:05:13;;;;;;;9.20;4.77;;;;;;;10.64;71.36;101062.56;4925083;29;20203;-74
2021/04/20 08:07:43;;;;;;;8.63;5.00;;;;;;;10.88;72.66;101063.78;4925946;29;20204;-72
2021/04/20 08:10:12;;;;;;;9.80;5.83;;;;;;;10.98;70.56;101061.09;4939969;28;20214;-74
2021/04/20 08:12:44;;;;;;;9.10;5.10;;;;;;;11.05;69.35;101067.94;4924831;29;20251;-74
2021/04/20 08:15:15;;;;;;;7.60;4.67;;;;;;;11.01;67.69;101060.59;4925337;29;20184;-74
2021/04/20 08:17:45;;;;;;;7.07;4.10;;;;;;;11.12;66.84;101073.13;4928420;28;20618;-73
2021/04/20 08:20:19;;;;;;;7.40;4.87;;;;;;;11.04;67.65;101060.84;4908446;28;20184;-75
2021/04/20 08:22:45;;;;;;;8.67;5.27;;;;;;;11.19;66.59;101060.94;4894090;29;20306;-75
2021/04/20 08:25:21;;;;;;;7.50;4.93;;;;;;;11.35;67.49;101057.97;4924694;28;20176;-73
2021/04/20 08:27:54;;;;;;;7.50;5.30;;;;;;;11.49;67.59;101056.44;4926590;29;20201;-75
2021/04/20 08:30:42;;;;;;;8.00;5.10;;;;;;;11.68;66.35;101057.56;4942211;28;20195;-75
2021/04/20 08:33:14;;;;;;;7.17;5.00;;;;;;;11.68;65.78;101057.56;4953816;29;20198;-75
2021/04/20 08:35:49;;;;;;;8.03;5.27;;;;;;;12.11;65.42;101055.16;4959480;28;20221;-76
2021/04/20 08:38:22;;;;;;;8.07;5.40;;;;;;;12.01;64.68;101050.53;4943453;29;20275;-73
2021/04/20 08:40:50;;;;;;;9.40;5.30;;;;;;;12.02;64.89;101048.63;4942387;28;20235;-74
2021/04/20 08:43:21;;;;;;;6.17;4.43;;;;;;;12.14;61.84;101043.72;4959028;29;20183;-74
2021/04/20 08:46:09;;;;;;;10.27;5.00;;;;;;;12.14;61.73;101041.81;4943240;29;20670;-74
2021/04/20 08:48:50;;;;;;;6.93;4.47;;;;;;;12.38;59.61;101037.41;4967351;29;20187;-75
2021/04/20 08:51:26;;;;;;;8.50;5.40;;;;;;;12.43;61.42;101040.13;4969112;28;20231;-75
2021/04/20 08:54:07;;;;;;;10.23;5.23;;;;;;;12.55;63.10;101036.03;4938496;29;20186;-76
2021/04/20 08:56:36;;;;;;;8.30;4.33;;;;;;;12.92;59.58;101039.25;4969648;28;20273;-75
2021/04/20 08:59:13;;;;;;;8.63;4.33;;;;;;;13.03;59.57;101038.13;4952145;28;20199;-74
2021/04/20 09:01:57;;;;;;;7.47;4.90;;;;;;;13.05;59.04;101042.19;4959682;28;20303;-73
2021/04/20 09:04:50;;;;;;;7.40;4.67;;;;;;;12.99;57.73;101042.50;4961978;28;20699;-73
2021/04/20 09:07:44;;;;;;;8.83;4.47;;;;;;;13.18;58.98;101033.41;4957882;28;20266;-74
2021/04/20 09:10:15;;;;;;;8.43;4.50;;;;;;;13.21;56.72;101035.56;4943123;28;20203;-75
2021/04/20 09:12:43;;;;;;;7.40;4.60;;;;;;;13.16;56.40;101035.59;4926683;29;20191;-74
2021/04/20 09:15:11;;;;;;;7.43;4.23;;;;;;;13.20;57.14;101031.19;4958287;28;20189;-74
2021/04/20 09:17:39;;;;;;;8.23;4.40;;;;;;;13.55;57.26;101024.47;4959293;28;20205;-75
2021/04/20 09:20:12;;;;;;;6.23;4.27;;;;;;;13.72;55.45;101018.63;4958789;29;20197;-75
2021/04/20 09:23:03;;;;;;;5.70;4.20;;;;;;;13.50;55.57;101032.69;4957383;28;20711;-74
2021/04/20 09:25:41;;;;;;;6.53;4.60;;;;;;;13.54;55.00;101022.03;4956814;28;20223;-73
2021/04/20 09:28:16;;;;;;;9.07;4.60;;;;;;;13.91;54.28;101017.66;4957799;28;20190;-75
2021/04/20 09:30:47;;;;;;;9.10;4.33;;;;;;;13.88;52.70;101013.59;4908425;29;20227;-74
2021/04/20 09:33:20;;;;;;;6.83;4.07;;;;;;;13.93;53.31;101018.19;4907423;29;20235;-75
2021/04/20 09:35:48;;;;;;;7.70;4.47;;;;;;;13.94;54.86;101011.63;4924025;29;20231;-74
2021/04/20 09:38:14;;;;;;;7.73;4.80;;;;;;;14.36;54.43;101010.72;4940745;29;20180;-74
2021/04/20 09:40:40;;;;;;;6.23;4.10;;;;;;;14.38;51.62;101007.72;4893454;29;20907;-74
2021/04/20 09:43:12;;;;;;;9.13;5.17;;;;;;;14.50;51.79;101011.66;4911475;29;20206;-75
2021/04/20 09:45:41;;;;;;;9.23;3.90;;;;;;;14.77;49.89;101010.00;4914684;29;20237;-75
2021/04/20 09:48:21;;;;;;;6.13;3.97;;;;;;;14.95;50.85;100997.50;4913885;29;20188;-74
2021/04/20 09:51:08;;;;;;;4.40;3.23;;;;;;;15.12;47.96;100999.44;4931502;29;20239;-75
2021/04/20 09:53:46;;;;;;;6.50;3.30;;;;;;;15.06;48.17;100999.81;4916230;29;20278;-75
2021/04/20 09:56:19;;;;;;;6.97;3.87;;;;;;;14.80;47.63;100995.75;4917093;29;20231;-74
2021/04/20 09:58:49;;;;;;;6.50;3.40;;;;;;;15.02;46.32;100999.56;4932874;29;20887;-75
2021/04/20 10:01:29;;;;;;;6.47;3.33;;;;;;;15.13;47.38;100994.78;4930626;29;20227;-74
2021/04/20 10:04:05;;;;;;;7.10;3.73;;;;;;;15.36;47.27;100997.50;4945808;29;20218;-74
2021/04/20 10:06:39;;;;;;;6.00;3.07;;;;;;;15.07;47.77;101005.00;4927429;29;20223;-74
2021/04/20 10:09:27;;;;;;;6.63;3.20;;;;;;;15.12;45.66;101007.63;4941558;29;20227;-74
2021/04/20 10:12:16;;;;;;;5.40;3.20;;;;;;;15.28;45.68;100998.16;4908726;29;20227;-75
2021/04/20 10:15:08;;;;;;;8.10;3.33;;;;;;;15.24;46.08;100996.31;4930229;29;20636;-74
2021/04/20 10:17:36;;;;;;;6.50;3.77;;;;;;;15.46;45.99;100989.16;4941640;29;20224;-74
2021/04/20 10:20:23;;;;;;;6.23;3.07;;;;;;;15.50;44.46;100988.25;4942165;29;20187;-74
2021/04/20 10:22:48;;;;;;;6.03;3.07;;;;;;;15.66;45.50;100986.94;4909733;29;20349;-75
2021/04/20 10:25:38;;;;;;;7.15;3.17;;;;;;;15.82;44.83;100983.66;4940140;28;20668;-78
2021/04/20 10:28:28;;;;;;;4.93;3.47;;;;;;;16.10;44.54;100979.91;4925359;29;20180;-76
2021/04/20 10:30:59;;;;;;;5.67;3.30;;;;;;;16.06;43.94;100978.03;4951402;28;20224;-75
2021/04/20 10:33:26;;;;;;;8.53;3.03;;;;;;;16.21;43.59;100975.91;4911498;29;20195;-76
2021/04/20 10:35:55;;;;;;;5.23;3.00;;;;;;;16.11;43.31;100970.53;4911180;29;20624;-76
2021/04/20 10:38:30;;;;;;;4.60;2.70;;;;;;;15.97;40.27;100974.34;4927594;29;20766;-75
2021/04/20 10:40:58;;;;;;;8.97;2.97;;;;;;;16.19;40.00;100967.16;4912963;29;20227;-75
2021/04/20 10:43:25;;;;;;;7.00;3.28;;;;;;;16.22;40.33;100969.28;4943046;29;20184;-74
2021/04/20 10:45:51;;;;;;;4.53;3.00;;;;;;;16.17;38.93;100969.34;4926491;29;20231;-75
2021/04/20 10:48:23;;;;;;;4.70;3.00;;;;;;;16.12;39.23;100966.69;4925848;29;20194;-75
2021/04/20 10:50:55;;;;;;;5.18;3.42;;;;;;;16.28;40.68;100970.81;4925614;29;20287;-74
2021/04/20 10:53:22;;;;;;;6.40;3.08;;;;;;;16.29;39.12;100964.22;4909411;29;20192;-75
2021/04/20 10:55:53;;;;;;;6.35;3.53;;;;;;;16.25;38.68;100963.22;4923683;29;20238;-75
2021/04/20 10:58:25;;;;;;;4.53;2.93;;;;;;;16.48;39.28;100959.47;4924836;29;20210;-74
2021/04/20 11:00:57;;;;;;;6.10;2.88;;;;;;;16.31;39.38;100956.50;4908692;29;20254;-74
2021/04/20 11:03:24;;;;;;;7.00;2.65;;;;;;;16.53;39.24;100956.66;4930126;28;20401;-73
2021/04/20 11:05:50;;;;;;;5.65;2.72;;;;;;;16.61;38.89;100957.56;4927810;29;20317;-75
2021/04/20 11:08:35;;;;;;;6.75;2.83;;;;;;;16.66;37.91;100957.44;4960262;29;20258;-74
2021/04/20 11:11:01;;;;;;;6.00;2.95;;;;;;;17.02;39.71;100953.69;4943967;29;20234;-74
2021/04/20 11:13:38;;;;;;;4.57;3.20;;;;;;;17.16;38.18;100946.28;4931451;29;20183;-74
2021/04/20 11:16:08;;;;;;;4.50;2.60;;;;;;;16.91;38.83;100954.19;4929241;29;20628;-74
2021/04/20 11:18:37;;;;;;;5.22;2.78;;;;;;;17.30;37.97;100940.75;4929232;29;20278;-75
2021/04/20 11:21:07;;;;;;;5.45;3.65;;;;;;;17.21;38.35;100948.09;4938942;28;20290;-76
2021/04/20 11:23:32;;;;;;;8.85;7.03;;;;;;;17.26;39.36;100939.75;4943022;29;20195;-75
2021/04/20 11:26:09;;;;;;;7.32;2.85;;;;;;;17.16;36.93;100940.78;4927574;29;20234;-75
2021/04/20 11:28:41;;;;;;;4.47;2.85;;;;;;;17.24;36.54;100942.00;4957911;28;20194;-74
2021/04/20 11:31:30;;;;;;;6.93;3.42;;;;;;;17.48;37.74;100933.16;4958918;28;20235;-75
2021/04/20 11:34:04;;;;;;;5.18;2.90;;;;;;;17.53;38.08;100935.78;4958165;28;20187;-74
2021/04/20 11:36:41;;;;;;;4.22;2.75;;;;;;;17.23;36.20;100945.84;4943481;29;20290;-75
2021/04/20 11:39:12;;;;;;;3.45;2.83;;;;;;;17.13;36.55;100940.56;4942287;29;20306;-74
2021/04/20 11:41:43;;;;;;;4.88;2.90;;;;;;;17.47;37.64;100928.78;4927618;29;20314;-75
2021/04/20 11:44:11;;;;;;;6.70;2.90;;;;;;;18.07;36.72;100924.53;4960925;29;20250;-74